ADDS - METARS form results

Aviation Digital Data Service (ADDS)

Output produced by METARs form (1151 UTC 18 August 2019)
found at http://aviationweather.gov/metar/data/
 
METAR text: KPNT 181135Z AUTO 00000KT 7SM /VCTSRA SCT100 SCT120 22/22 A2984 RMK AO2 LTG DSNT N AND NE P0001 T02210218
Conditions at: KPNT (PONTIAC , IL, US) observed 1135 UTC 18 August 2019
Temperature: 22.1°C (72°F)
Dewpoint: 21.8°C (71°F) [RH = 98%]
Pressure (altimeter): 29.84 inches Hg (1010.6 mb)
Winds: calm
Visibility: 7 miles (11 km)
Ceiling: at least 12,000 feet AGL
Clouds: scattered clouds at 10000 feet AGL
scattered clouds at 12000 feet AGL
Weather: VCTS RA  (thunderstorm in vicinity, moderate rain)

METAR text: KPNT 181115Z AUTO 00000KT 10SM TS SCT075 BKN120 21/21 A2985 RMK AO2 LTG DSNT ALQS T02130210
Conditions at: KPNT (PONTIAC , IL, US) observed 1115 UTC 18 August 2019
Temperature: 21.3°C (70°F)
Dewpoint: 21.0°C (70°F) [RH = 98%]
Pressure (altimeter): 29.85 inches Hg (1010.9 mb)
Winds: calm
Visibility: 10 or more miles (16+ km)
Ceiling: 12000 feet AGL
Clouds: scattered clouds at 7500 feet AGL
broken clouds at 12000 feet AGL
Weather: TS  (thunderstorm)

METAR text: KPNT 181055Z AUTO 00000KT 7SM VCTS BKN070 21/21 A2985 RMK AO2 LTG DSNT N SE AND W T02110208
Conditions at: KPNT (PONTIAC , IL, US) observed 1055 UTC 18 August 2019
Temperature: 21.1°C (70°F)
Dewpoint: 20.8°C (69°F) [RH = 98%]
Pressure (altimeter): 29.85 inches Hg (1010.9 mb)
Winds: calm
Visibility: 7 miles (11 km)
Ceiling: 7000 feet AGL
Clouds: broken clouds at 7000 feet AGL
Weather: VCTS  (thunderstorm in vicinity)